sensor_id;sensor_type;location;lat;lon;timestamp;P1;durP1;ratioP1;P2;durP2;ratioP2
4464;SDS011;2245;48.136;13.428;2022-08-21T00:00:17;9.27;;;5.83;;
4464;SDS011;2245;48.136;13.428;2022-08-21T00:02:46;5.63;;;5.13;;
4464;SDS011;2245;48.136;13.428;2022-08-21T00:05:16;4.27;;;3.43;;
4464;SDS011;2245;48.136;13.428;2022-08-21T00:07:43;1.90;;;1.80;;
4464;SDS011;2245;48.136;13.428;2022-08-21T00:10:10;2.10;;;1.50;;
4464;SDS011;2245;48.136;13.428;2022-08-21T00:12:38;1.83;;;1.83;;
4464;SDS011;2245;48.136;13.428;2022-08-21T00:15:06;2.47;;;2.37;;
4464;SDS011;2245;48.136;13.428;2022-08-21T00:17:34;2.30;;;2.17;;
4464;SDS011;2245;48.136;13.428;2022-08-21T00:20:01;2.17;;;2.00;;
4464;SDS011;2245;48.136;13.428;2022-08-21T00:22:30;4.40;;;2.57;;
4464;SDS011;2245;48.136;13.428;2022-08-21T00:24:57;2.30;;;2.20;;
4464;SDS011;2245;48.136;13.428;2022-08-21T00:27:24;3.10;;;2.57;;
4464;SDS011;2245;48.136;13.428;2022-08-21T00:29:51;2.00;;;1.80;;
4464;SDS011;2245;48.136;13.428;2022-08-21T00:32:20;2.20;;;2.10;;
4464;SDS011;2245;48.136;13.428;2022-08-21T00:34:48;2.67;;;2.40;;
4464;SDS011;2245;48.136;13.428;2022-08-21T00:37:14;2.57;;;2.37;;
4464;SDS011;2245;48.136;13.428;2022-08-21T00:39:43;3.60;;;2.57;;
4464;SDS011;2245;48.136;13.428;2022-08-21T00:42:10;3.20;;;2.47;;
4464;SDS011;2245;48.136;13.428;2022-08-21T00:44:40;3.30;;;3.00;;
4464;SDS011;2245;48.136;13.428;2022-08-21T00:47:07;3.10;;;2.90;;
4464;SDS011;2245;48.136;13.428;2022-08-21T00:49:34;3.40;;;3.00;;
4464;SDS011;2245;48.136;13.428;2022-08-21T00:52:02;3.37;;;3.07;;
4464;SDS011;2245;48.136;13.428;2022-08-21T00:54:30;3.63;;;3.33;;
4464;SDS011;2245;48.136;13.428;2022-08-21T00:57:00;3.83;;;3.50;;
4464;SDS011;2245;48.136;13.428;2022-08-21T00:59:30;4.20;;;3.90;;
4464;SDS011;2245;48.136;13.428;2022-08-21T01:02:00;4.60;;;4.20;;
4464;SDS011;2245;48.136;13.428;2022-08-21T01:04:27;4.40;;;4.00;;
4464;SDS011;2245;48.136;13.428;2022-08-21T01:06:54;5.60;;;4.60;;
4464;SDS011;2245;48.136;13.428;2022-08-21T01:09:20;5.40;;;4.80;;
4464;SDS011;2245;48.136;13.428;2022-08-21T01:11:47;4.40;;;4.00;;
4464;SDS011;2245;48.136;13.428;2022-08-21T01:14:16;4.23;;;3.83;;
4464;SDS011;2245;48.136;13.428;2022-08-21T01:16:45;5.00;;;4.60;;
4464;SDS011;2245;48.136;13.428;2022-08-21T01:19:13;4.87;;;4.27;;
4464;SDS011;2245;48.136;13.428;2022-08-21T01:21:43;4.03;;;3.73;;
4464;SDS011;2245;48.136;13.428;2022-08-21T01:24:10;4.57;;;4.13;;
4464;SDS011;2245;48.136;13.428;2022-08-21T01:26:38;4.93;;;4.53;;
4464;SDS011;2245;48.136;13.428;2022-08-21T01:29:07;3.93;;;3.63;;
4464;SDS011;2245;48.136;13.428;2022-08-21T01:31:38;4.30;;;3.90;;
4464;SDS011;2245;48.136;13.428;2022-08-21T01:34:24;5.30;;;4.90;;
4464;SDS011;2245;48.136;13.428;2022-08-21T01:36:52;4.10;;;3.77;;
4464;SDS011;2245;48.136;13.428;2022-08-21T01:39:19;4.60;;;4.20;;
4464;SDS011;2245;48.136;13.428;2022-08-21T01:41:46;4.87;;;4.47;;
4464;SDS011;2245;48.136;13.428;2022-08-21T01:44:13;5.13;;;4.50;;
4464;SDS011;2245;48.136;13.428;2022-08-21T01:46:40;4.73;;;4.23;;
4464;SDS011;2245;48.136;13.428;2022-08-21T01:49:07;5.40;;;4.60;;
4464;SDS011;2245;48.136;13.428;2022-08-21T01:51:33;7.17;;;4.70;;
4464;SDS011;2245;48.136;13.428;2022-08-21T01:54:02;6.97;;;4.63;;
4464;SDS011;2245;48.136;13.428;2022-08-21T01:56:29;5.27;;;4.77;;
4464;SDS011;2245;48.136;13.428;2022-08-21T01:59:02;5.43;;;4.70;;
4464;SDS011;2245;48.136;13.428;2022-08-21T02:01:29;5.47;;;4.40;;
4464;SDS011;2245;48.136;13.428;2022-08-21T02:03:56;6.00;;;5.33;;
4464;SDS011;2245;48.136;13.428;2022-08-21T02:06:23;5.03;;;4.63;;
4464;SDS011;2245;48.136;13.428;2022-08-21T02:08:50;6.20;;;5.60;;
4464;SDS011;2245;48.136;13.428;2022-08-21T02:11:18;10.90;;;6.93;;
4464;SDS011;2245;48.136;13.428;2022-08-21T02:13:45;7.30;;;5.20;;
4464;SDS011;2245;48.136;13.428;2022-08-21T02:16:12;6.50;;;5.13;;
4464;SDS011;2245;48.136;13.428;2022-08-21T02:18:40;7.17;;;5.47;;
4464;SDS011;2245;48.136;13.428;2022-08-21T02:21:07;5.80;;;5.30;;
4464;SDS011;2245;48.136;13.428;2022-08-21T02:23:34;11.07;;;6.63;;
4464;SDS011;2245;48.136;13.428;2022-08-21T02:26:02;9.77;;;6.40;;
4464;SDS011;2245;48.136;13.428;2022-08-21T02:28:33;9.97;;;6.57;;
4464;SDS011;2245;48.136;13.428;2022-08-21T02:31:00;6.67;;;5.87;;
4464;SDS011;2245;48.136;13.428;2022-08-21T02:33:28;8.60;;;6.40;;
4464;SDS011;2245;48.136;13.428;2022-08-21T02:35:55;8.20;;;6.93;;
4464;SDS011;2245;48.136;13.428;2022-08-21T02:38:24;8.33;;;6.70;;
4464;SDS011;2245;48.136;13.428;2022-08-21T02:40:53;7.90;;;6.63;;
4464;SDS011;2245;48.136;13.428;2022-08-21T02:43:21;8.17;;;6.77;;
4464;SDS011;2245;48.136;13.428;2022-08-21T02:45:50;8.07;;;7.03;;
4464;SDS011;2245;48.136;13.428;2022-08-21T02:48:19;7.03;;;6.33;;
4464;SDS011;2245;48.136;13.428;2022-08-21T02:50:47;10.03;;;7.40;;
4464;SDS011;2245;48.136;13.428;2022-08-21T02:53:17;9.83;;;6.90;;
4464;SDS011;2245;48.136;13.428;2022-08-21T02:55:45;10.87;;;6.80;;
4464;SDS011;2245;48.136;13.428;2022-08-21T02:58:13;12.97;;;8.37;;
4464;SDS011;2245;48.136;13.428;2022-08-21T03:00:41;13.93;;;8.73;;
4464;SDS011;2245;48.136;13.428;2022-08-21T03:03:10;9.23;;;7.70;;
4464;SDS011;2245;48.136;13.428;2022-08-21T03:05:39;8.50;;;7.30;;
4464;SDS011;2245;48.136;13.428;2022-08-21T03:08:07;8.80;;;6.60;;
4464;SDS011;2245;48.136;13.428;2022-08-21T03:10:36;8.13;;;6.77;;
4464;SDS011;2245;48.136;13.428;2022-08-21T03:13:05;10.70;;;7.20;;
4464;SDS011;2245;48.136;13.428;2022-08-21T03:15:32;7.60;;;5.87;;
4464;SDS011;2245;48.136;13.428;2022-08-21T03:18:00;8.30;;;6.60;;
4464;SDS011;2245;48.136;13.428;2022-08-21T03:20:29;10.63;;;6.77;;
4464;SDS011;2245;48.136;13.428;2022-08-21T03:22:57;8.50;;;6.40;;
4464;SDS011;2245;48.136;13.428;2022-08-21T03:25:25;8.57;;;7.13;;
4464;SDS011;2245;48.136;13.428;2022-08-21T03:27:53;8.70;;;7.30;;
4464;SDS011;2245;48.136;13.428;2022-08-21T03:30:20;8.30;;;7.47;;
4464;SDS011;2245;48.136;13.428;2022-08-21T03:32:48;11.37;;;8.70;;
4464;SDS011;2245;48.136;13.428;2022-08-21T03:35:15;12.03;;;9.40;;
4464;SDS011;2245;48.136;13.428;2022-08-21T03:37:45;14.60;;;12.20;;
4464;SDS011;2245;48.136;13.428;2022-08-21T03:40:13;16.70;;;13.33;;
4464;SDS011;2245;48.136;13.428;2022-08-21T03:42:41;18.47;;;13.50;;
4464;SDS011;2245;48.136;13.428;2022-08-21T03:45:09;18.20;;;13.47;;
4464;SDS011;2245;48.136;13.428;2022-08-21T03:47:36;21.70;;;13.73;;
4464;SDS011;2245;48.136;13.428;2022-08-21T03:50:03;19.03;;;14.50;;
4464;SDS011;2245;48.136;13.428;2022-08-21T03:52:31;21.10;;;14.37;;
4464;SDS011;2245;48.136;13.428;2022-08-21T03:54:59;25.13;;;14.00;;
4464;SDS011;2245;48.136;13.428;2022-08-21T03:57:26;22.30;;;14.67;;
4464;SDS011;2245;48.136;13.428;2022-08-21T03:59:53;21.90;;;13.50;;
4464;SDS011;2245;48.136;13.428;2022-08-21T04:02:21;19.97;;;14.07;;
4464;SDS011;2245;48.136;13.428;2022-08-21T04:04:48;18.03;;;13.03;;
4464;SDS011;2245;48.136;13.428;2022-08-21T04:07:15;28.30;;;13.90;;
4464;SDS011;2245;48.136;13.428;2022-08-21T04:09:42;22.10;;;14.93;;
4464;SDS011;2245;48.136;13.428;2022-08-21T04:12:11;24.23;;;14.37;;
4464;SDS011;2245;48.136;13.428;2022-08-21T04:14:39;20.03;;;14.13;;
4464;SDS011;2245;48.136;13.428;2022-08-21T04:17:06;18.83;;;13.77;;
4464;SDS011;2245;48.136;13.428;2022-08-21T04:19:33;16.80;;;13.37;;
4464;SDS011;2245;48.136;13.428;2022-08-21T04:22:01;19.03;;;13.53;;
4464;SDS011;2245;48.136;13.428;2022-08-21T04:24:28;20.63;;;12.93;;
4464;SDS011;2245;48.136;13.428;2022-08-21T04:26:55;17.77;;;13.90;;
4464;SDS011;2245;48.136;13.428;2022-08-21T04:29:23;18.40;;;12.30;;
4464;SDS011;2245;48.136;13.428;2022-08-21T04:31:50;18.07;;;13.33;;
4464;SDS011;2245;48.136;13.428;2022-08-21T04:34:18;15.57;;;12.70;;
4464;SDS011;2245;48.136;13.428;2022-08-21T04:36:45;17.70;;;13.40;;
4464;SDS011;2245;48.136;13.428;2022-08-21T04:39:12;22.10;;;14.10;;
4464;SDS011;2245;48.136;13.428;2022-08-21T04:41:39;21.40;;;14.83;;
4464;SDS011;2245;48.136;13.428;2022-08-21T04:44:06;16.27;;;13.03;;
4464;SDS011;2245;48.136;13.428;2022-08-21T04:46:35;17.37;;;12.87;;
4464;SDS011;2245;48.136;13.428;2022-08-21T04:49:02;23.27;;;13.30;;
4464;SDS011;2245;48.136;13.428;2022-08-21T04:51:29;18.43;;;14.50;;
4464;SDS011;2245;48.136;13.428;2022-08-21T04:53:59;18.13;;;14.00;;
4464;SDS011;2245;48.136;13.428;2022-08-21T04:56:29;17.87;;;12.27;;
4464;SDS011;2245;48.136;13.428;2022-08-21T04:59:00;18.17;;;14.07;;
4464;SDS011;2245;48.136;13.428;2022-08-21T05:01:30;17.60;;;12.40;;
4464;SDS011;2245;48.136;13.428;2022-08-21T05:04:02;15.97;;;12.30;;
4464;SDS011;2245;48.136;13.428;2022-08-21T05:06:29;17.80;;;12.23;;
4464;SDS011;2245;48.136;13.428;2022-08-21T05:08:58;16.37;;;13.10;;
4464;SDS011;2245;48.136;13.428;2022-08-21T05:11:27;16.33;;;12.30;;
4464;SDS011;2245;48.136;13.428;2022-08-21T05:13:55;13.03;;;11.30;;
4464;SDS011;2245;48.136;13.428;2022-08-21T05:16:22;15.00;;;11.17;;
4464;SDS011;2245;48.136;13.428;2022-08-21T05:18:49;15.03;;;12.70;;
4464;SDS011;2245;48.136;13.428;2022-08-21T05:21:17;16.93;;;12.40;;
4464;SDS011;2245;48.136;13.428;2022-08-21T05:23:46;14.07;;;11.43;;
4464;SDS011;2245;48.136;13.428;2022-08-21T05:26:13;16.00;;;10.90;;
4464;SDS011;2245;48.136;13.428;2022-08-21T05:28:40;19.13;;;11.23;;
4464;SDS011;2245;48.136;13.428;2022-08-21T05:31:07;13.90;;;11.70;;
4464;SDS011;2245;48.136;13.428;2022-08-21T05:33:34;17.67;;;11.60;;
4464;SDS011;2245;48.136;13.428;2022-08-21T05:36:01;21.30;;;11.93;;
4464;SDS011;2245;48.136;13.428;2022-08-21T05:38:30;18.53;;;12.70;;
4464;SDS011;2245;48.136;13.428;2022-08-21T05:40:57;17.73;;;12.47;;
4464;SDS011;2245;48.136;13.428;2022-08-21T05:43:23;17.77;;;12.70;;
4464;SDS011;2245;48.136;13.428;2022-08-21T05:45:50;14.70;;;11.17;;
4464;SDS011;2245;48.136;13.428;2022-08-21T05:48:18;14.80;;;10.20;;
4464;SDS011;2245;48.136;13.428;2022-08-21T05:50:47;16.77;;;11.60;;
4464;SDS011;2245;48.136;13.428;2022-08-21T05:53:15;13.00;;;11.60;;
4464;SDS011;2245;48.136;13.428;2022-08-21T05:55:45;19.67;;;12.77;;
4464;SDS011;2245;48.136;13.428;2022-08-21T05:58:12;22.50;;;14.67;;
4464;SDS011;2245;48.136;13.428;2022-08-21T06:00:40;17.70;;;15.80;;
4464;SDS011;2245;48.136;13.428;2022-08-21T06:03:10;19.63;;;14.90;;
4464;SDS011;2245;48.136;13.428;2022-08-21T06:05:38;20.17;;;15.27;;
4464;SDS011;2245;48.136;13.428;2022-08-21T06:08:06;23.33;;;16.50;;
4464;SDS011;2245;48.136;13.428;2022-08-21T06:10:34;25.93;;;18.57;;
4464;SDS011;2245;48.136;13.428;2022-08-21T06:13:02;21.27;;;18.37;;
4464;SDS011;2245;48.136;13.428;2022-08-21T06:15:30;24.93;;;18.93;;
4464;SDS011;2245;48.136;13.428;2022-08-21T06:17:57;26.13;;;19.90;;
4464;SDS011;2245;48.136;13.428;2022-08-21T06:20:35;24.83;;;19.07;;
4464;SDS011;2245;48.136;13.428;2022-08-21T06:23:03;24.80;;;20.47;;
4464;SDS011;2245;48.136;13.428;2022-08-21T06:25:30;26.17;;;21.30;;
4464;SDS011;2245;48.136;13.428;2022-08-21T06:28:00;28.30;;;22.07;;
4464;SDS011;2245;48.136;13.428;2022-08-21T06:30:29;29.87;;;22.10;;
4464;SDS011;2245;48.136;13.428;2022-08-21T06:32:56;36.60;;;24.70;;
4464;SDS011;2245;48.136;13.428;2022-08-21T06:35:23;34.03;;;21.87;;
4464;SDS011;2245;48.136;13.428;2022-08-21T06:37:50;28.83;;;21.90;;
4464;SDS011;2245;48.136;13.428;2022-08-21T06:40:17;27.50;;;20.10;;
4464;SDS011;2245;48.136;13.428;2022-08-21T06:42:44;33.90;;;20.17;;
4464;SDS011;2245;48.136;13.428;2022-08-21T06:45:12;30.00;;;19.90;;
4464;SDS011;2245;48.136;13.428;2022-08-21T06:47:42;25.17;;;19.73;;
4464;SDS011;2245;48.136;13.428;2022-08-21T06:50:10;25.90;;;20.37;;
4464;SDS011;2245;48.136;13.428;2022-08-21T06:52:37;30.27;;;20.07;;
4464;SDS011;2245;48.136;13.428;2022-08-21T06:55:06;24.50;;;18.73;;
4464;SDS011;2245;48.136;13.428;2022-08-21T06:57:34;22.17;;;17.97;;
4464;SDS011;2245;48.136;13.428;2022-08-21T07:00:02;19.83;;;17.27;;
4464;SDS011;2245;48.136;13.428;2022-08-21T07:02:32;19.77;;;16.63;;
4464;SDS011;2245;48.136;13.428;2022-08-21T07:04:59;20.23;;;15.83;;
4464;SDS011;2245;48.136;13.428;2022-08-21T07:07:26;23.57;;;16.80;;
4464;SDS011;2245;48.136;13.428;2022-08-21T07:09:53;24.77;;;16.53;;
4464;SDS011;2245;48.136;13.428;2022-08-21T07:12:20;18.73;;;15.07;;
4464;SDS011;2245;48.136;13.428;2022-08-21T07:14:47;23.20;;;17.33;;
4464;SDS011;2245;48.136;13.428;2022-08-21T07:17:15;23.67;;;14.83;;
4464;SDS011;2245;48.136;13.428;2022-08-21T07:19:43;22.60;;;15.40;;
4464;SDS011;2245;48.136;13.428;2022-08-21T07:22:10;19.70;;;14.00;;
4464;SDS011;2245;48.136;13.428;2022-08-21T07:24:38;16.93;;;13.33;;
4464;SDS011;2245;48.136;13.428;2022-08-21T07:27:06;20.20;;;14.93;;
4464;SDS011;2245;48.136;13.428;2022-08-21T07:29:32;17.77;;;13.37;;
4464;SDS011;2245;48.136;13.428;2022-08-21T07:34:49;22.23;;;14.60;;
4464;SDS011;2245;48.136;13.428;2022-08-21T07:37:16;19.30;;;14.37;;
4464;SDS011;2245;48.136;13.428;2022-08-21T07:39:43;19.03;;;13.30;;
4464;SDS011;2245;48.136;13.428;2022-08-21T07:42:13;18.07;;;13.43;;
4464;SDS011;2245;48.136;13.428;2022-08-21T07:44:40;19.67;;;13.60;;
4464;SDS011;2245;48.136;13.428;2022-08-21T07:47:07;15.10;;;12.60;;
4464;SDS011;2245;48.136;13.428;2022-08-21T07:49:34;19.63;;;13.43;;
4464;SDS011;2245;48.136;13.428;2022-08-21T07:52:04;23.30;;;13.47;;
4464;SDS011;2245;48.136;13.428;2022-08-21T07:54:31;17.33;;;12.50;;
4464;SDS011;2245;48.136;13.428;2022-08-21T07:56:58;18.30;;;13.13;;
4464;SDS011;2245;48.136;13.428;2022-08-21T07:59:25;19.07;;;12.70;;
4464;SDS011;2245;48.136;13.428;2022-08-21T08:01:52;15.27;;;12.67;;
4464;SDS011;2245;48.136;13.428;2022-08-21T08:04:19;14.37;;;12.00;;
4464;SDS011;2245;48.136;13.428;2022-08-21T08:06:46;13.47;;;10.53;;
4464;SDS011;2245;48.136;13.428;2022-08-21T08:09:14;14.73;;;10.40;;
4464;SDS011;2245;48.136;13.428;2022-08-21T08:11:42;15.07;;;11.10;;
4464;SDS011;2245;48.136;13.428;2022-08-21T08:17:31;15.03;;;11.40;;
4464;SDS011;2245;48.136;13.428;2022-08-21T08:19:58;13.33;;;9.90;;
4464;SDS011;2245;48.136;13.428;2022-08-21T08:22:26;11.73;;;9.53;;
4464;SDS011;2245;48.136;13.428;2022-08-21T08:24:54;12.93;;;8.60;;
4464;SDS011;2245;48.136;13.428;2022-08-21T08:27:21;14.63;;;8.63;;
4464;SDS011;2245;48.136;13.428;2022-08-21T08:29:48;15.23;;;10.47;;
4464;SDS011;2245;48.136;13.428;2022-08-21T08:32:16;12.37;;;9.10;;
4464;SDS011;2245;48.136;13.428;2022-08-21T08:34:43;11.93;;;8.60;;
4464;SDS011;2245;48.136;13.428;2022-08-21T08:37:11;9.67;;;8.20;;
4464;SDS011;2245;48.136;13.428;2022-08-21T08:39:39;12.70;;;9.40;;
4464;SDS011;2245;48.136;13.428;2022-08-21T08:42:08;11.20;;;8.00;;
4464;SDS011;2245;48.136;13.428;2022-08-21T08:44:39;9.10;;;8.20;;
4464;SDS011;2245;48.136;13.428;2022-08-21T08:47:06;12.27;;;8.63;;
4464;SDS011;2245;48.136;13.428;2022-08-21T08:49:36;14.63;;;8.60;;
4464;SDS011;2245;48.136;13.428;2022-08-21T08:52:05;13.20;;;7.87;;
4464;SDS011;2245;48.136;13.428;2022-08-21T08:54:39;9.30;;;7.97;;
4464;SDS011;2245;48.136;13.428;2022-08-21T08:57:11;9.30;;;8.33;;
4464;SDS011;2245;48.136;13.428;2022-08-21T08:59:43;10.43;;;9.37;;
4464;SDS011;2245;48.136;13.428;2022-08-21T09:02:13;10.07;;;9.00;;
4464;SDS011;2245;48.136;13.428;2022-08-21T09:04:40;11.97;;;8.87;;
4464;SDS011;2245;48.136;13.428;2022-08-21T09:07:11;9.80;;;8.30;;
4464;SDS011;2245;48.136;13.428;2022-08-21T09:09:46;10.20;;;8.37;;
4464;SDS011;2245;48.136;13.428;2022-08-21T09:12:25;10.50;;;7.60;;
4464;SDS011;2245;48.136;13.428;2022-08-21T09:15:03;9.73;;;7.47;;
4464;SDS011;2245;48.136;13.428;2022-08-21T09:17:44;9.17;;;7.93;;
4464;SDS011;2245;48.136;13.428;2022-08-21T09:20:19;8.20;;;7.30;;
4464;SDS011;2245;48.136;13.428;2022-08-21T09:22:55;11.60;;;7.90;;
4464;SDS011;2245;48.136;13.428;2022-08-21T09:25:27;11.00;;;7.60;;
4464;SDS011;2245;48.136;13.428;2022-08-21T09:27:58;9.00;;;8.13;;
4464;SDS011;2245;48.136;13.428;2022-08-21T09:30:25;9.50;;;7.80;;
4464;SDS011;2245;48.136;13.428;2022-08-21T09:32:54;15.27;;;8.43;;
4464;SDS011;2245;48.136;13.428;2022-08-21T09:35:21;10.30;;;7.63;;
4464;SDS011;2245;48.136;13.428;2022-08-21T09:37:50;9.60;;;8.00;;
4464;SDS011;2245;48.136;13.428;2022-08-21T09:40:20;10.23;;;8.70;;
4464;SDS011;2245;48.136;13.428;2022-08-21T09:42:56;10.83;;;8.67;;
4464;SDS011;2245;48.136;13.428;2022-08-21T09:45:26;14.33;;;7.60;;
4464;SDS011;2245;48.136;13.428;2022-08-21T09:47:54;11.27;;;9.33;;
4464;SDS011;2245;48.136;13.428;2022-08-21T09:50:22;9.20;;;8.30;;
4464;SDS011;2245;48.136;13.428;2022-08-21T09:52:51;10.13;;;8.53;;
4464;SDS011;2245;48.136;13.428;2022-08-21T09:55:21;12.20;;;9.37;;
4464;SDS011;2245;48.136;13.428;2022-08-21T09:58:11;12.63;;;9.70;;
4464;SDS011;2245;48.136;13.428;2022-08-21T10:00:37;13.23;;;9.53;;
4464;SDS011;2245;48.136;13.428;2022-08-21T10:03:08;11.50;;;9.87;;
4464;SDS011;2245;48.136;13.428;2022-08-21T10:05:40;13.60;;;10.50;;
4464;SDS011;2245;48.136;13.428;2022-08-21T10:08:17;11.20;;;9.70;;
4464;SDS011;2245;48.136;13.428;2022-08-21T10:10:45;12.93;;;10.00;;
4464;SDS011;2245;48.136;13.428;2022-08-21T10:13:15;12.60;;;9.73;;
4464;SDS011;2245;48.136;13.428;2022-08-21T10:15:47;13.43;;;9.93;;
4464;SDS011;2245;48.136;13.428;2022-08-21T10:18:20;14.50;;;11.47;;
4464;SDS011;2245;48.136;13.428;2022-08-21T10:20:50;12.03;;;10.33;;
4464;SDS011;2245;48.136;13.428;2022-08-21T10:23:34;12.20;;;11.00;;
4464;SDS011;2245;48.136;13.428;2022-08-21T10:26:08;10.83;;;9.30;;
4464;SDS011;2245;48.136;13.428;2022-08-21T10:28:53;14.80;;;11.80;;
4464;SDS011;2245;48.136;13.428;2022-08-21T10:31:26;13.43;;;12.03;;
4464;SDS011;2245;48.136;13.428;2022-08-21T10:34:01;13.20;;;10.83;;
4464;SDS011;2245;48.136;13.428;2022-08-21T10:42:48;11.53;;;10.33;;
4464;SDS011;2245;48.136;13.428;2022-08-21T10:45:25;10.00;;;8.97;;
4464;SDS011;2245;48.136;13.428;2022-08-21T10:48:01;9.50;;;8.20;;
4464;SDS011;2245;48.136;13.428;2022-08-21T10:50:30;10.33;;;8.73;;
4464;SDS011;2245;48.136;13.428;2022-08-21T10:53:11;10.50;;;9.40;;
4464;SDS011;2245;48.136;13.428;2022-08-21T10:55:48;12.30;;;9.13;;
4464;SDS011;2245;48.136;13.428;2022-08-21T10:58:21;11.77;;;10.20;;
4464;SDS011;2245;48.136;13.428;2022-08-21T11:00:54;10.40;;;8.43;;
4464;SDS011;2245;48.136;13.428;2022-08-21T11:03:24;11.70;;;7.67;;
4464;SDS011;2245;48.136;13.428;2022-08-21T11:05:54;13.17;;;10.23;;
4464;SDS011;2245;48.136;13.428;2022-08-21T11:08:23;12.50;;;10.23;;
4464;SDS011;2245;48.136;13.428;2022-08-21T11:10:53;11.33;;;10.23;;
4464;SDS011;2245;48.136;13.428;2022-08-21T11:13:25;10.87;;;9.90;;
4464;SDS011;2245;48.136;13.428;2022-08-21T11:16:01;11.80;;;9.63;;
4464;SDS011;2245;48.136;13.428;2022-08-21T11:18:32;11.07;;;9.90;;
4464;SDS011;2245;48.136;13.428;2022-08-21T11:21:04;11.40;;;8.93;;
4464;SDS011;2245;48.136;13.428;2022-08-21T11:23:41;10.23;;;9.30;;
4464;SDS011;2245;48.136;13.428;2022-08-21T11:26:11;12.17;;;9.33;;
4464;SDS011;2245;48.136;13.428;2022-08-21T11:28:43;9.00;;;8.13;;
4464;SDS011;2245;48.136;13.428;2022-08-21T11:31:17;9.27;;;8.43;;
4464;SDS011;2245;48.136;13.428;2022-08-21T11:33:56;10.23;;;9.27;;
4464;SDS011;2245;48.136;13.428;2022-08-21T11:36:30;9.87;;;8.97;;
4464;SDS011;2245;48.136;13.428;2022-08-21T11:39:04;12.63;;;9.80;;
4464;SDS011;2245;48.136;13.428;2022-08-21T11:41:35;9.60;;;8.80;;
4464;SDS011;2245;48.136;13.428;2022-08-21T11:44:08;10.03;;;8.77;;
4464;SDS011;2245;48.136;13.428;2022-08-21T11:46:39;9.37;;;8.57;;
4464;SDS011;2245;48.136;13.428;2022-08-21T11:49:21;10.23;;;9.27;;
4464;SDS011;2245;48.136;13.428;2022-08-21T11:51:54;9.37;;;8.40;;
4464;SDS011;2245;48.136;13.428;2022-08-21T11:54:26;8.13;;;7.47;;
4464;SDS011;2245;48.136;13.428;2022-08-21T11:56:55;8.63;;;7.43;;
4464;SDS011;2245;48.136;13.428;2022-08-21T11:59:28;7.00;;;6.40;;
4464;SDS011;2245;48.136;13.428;2022-08-21T12:02:02;8.33;;;7.17;;
4464;SDS011;2245;48.136;13.428;2022-08-21T12:04:35;7.40;;;6.80;;
4464;SDS011;2245;48.136;13.428;2022-08-21T12:07:10;7.30;;;6.70;;
4464;SDS011;2245;48.136;13.428;2022-08-21T12:09:38;6.20;;;5.70;;
4464;SDS011;2245;48.136;13.428;2022-08-21T12:12:05;6.13;;;5.63;;
4464;SDS011;2245;48.136;13.428;2022-08-21T12:14:49;7.30;;;6.20;;
4464;SDS011;2245;48.136;13.428;2022-08-21T12:17:36;6.83;;;6.13;;
4464;SDS011;2245;48.136;13.428;2022-08-21T12:20:15;6.27;;;5.77;;
4464;SDS011;2245;48.136;13.428;2022-08-21T12:22:47;7.80;;;6.90;;
4464;SDS011;2245;48.136;13.428;2022-08-21T12:25:17;6.50;;;5.83;;
4464;SDS011;2245;48.136;13.428;2022-08-21T12:27:46;7.33;;;6.63;;
4464;SDS011;2245;48.136;13.428;2022-08-21T12:30:21;7.43;;;6.73;;
4464;SDS011;2245;48.136;13.428;2022-08-21T12:33:01;7.53;;;6.20;;
4464;SDS011;2245;48.136;13.428;2022-08-21T12:35:31;10.70;;;5.90;;
4464;SDS011;2245;48.136;13.428;2022-08-21T12:38:04;11.60;;;10.60;;
4464;SDS011;2245;48.136;13.428;2022-08-21T12:40:37;8.10;;;6.40;;
4464;SDS011;2245;48.136;13.428;2022-08-21T12:43:11;9.13;;;8.20;;
4464;SDS011;2245;48.136;13.428;2022-08-21T12:45:42;5.60;;;4.97;;
4464;SDS011;2245;48.136;13.428;2022-08-21T12:48:14;6.20;;;5.60;;
4464;SDS011;2245;48.136;13.428;2022-08-21T12:50:46;6.53;;;5.83;;
4464;SDS011;2245;48.136;13.428;2022-08-21T12:53:20;5.60;;;5.10;;
4464;SDS011;2245;48.136;13.428;2022-08-21T12:55:53;6.57;;;5.97;;
4464;SDS011;2245;48.136;13.428;2022-08-21T12:58:25;6.47;;;5.60;;
4464;SDS011;2245;48.136;13.428;2022-08-21T13:00:53;6.73;;;6.00;;
4464;SDS011;2245;48.136;13.428;2022-08-21T13:03:23;6.07;;;5.53;;
4464;SDS011;2245;48.136;13.428;2022-08-21T13:05:52;11.30;;;6.67;;
4464;SDS011;2245;48.136;13.428;2022-08-21T13:08:20;7.13;;;6.43;;
4464;SDS011;2245;48.136;13.428;2022-08-21T13:10:49;7.20;;;6.40;;
4464;SDS011;2245;48.136;13.428;2022-08-21T13:13:24;7.37;;;6.67;;
4464;SDS011;2245;48.136;13.428;2022-08-21T13:15:56;7.40;;;6.13;;
4464;SDS011;2245;48.136;13.428;2022-08-21T13:18:26;7.73;;;7.03;;
4464;SDS011;2245;48.136;13.428;2022-08-21T13:21:02;7.57;;;6.83;;
4464;SDS011;2245;48.136;13.428;2022-08-21T13:23:31;7.73;;;6.33;;
4464;SDS011;2245;48.136;13.428;2022-08-21T13:25:58;6.50;;;6.00;;
4464;SDS011;2245;48.136;13.428;2022-08-21T13:28:31;6.50;;;5.90;;
4464;SDS011;2245;48.136;13.428;2022-08-21T13:30:59;4.90;;;4.23;;
4464;SDS011;2245;48.136;13.428;2022-08-21T13:33:28;5.83;;;5.33;;
4464;SDS011;2245;48.136;13.428;2022-08-21T13:36:00;8.70;;;5.10;;
4464;SDS011;2245;48.136;13.428;2022-08-21T13:38:33;5.47;;;5.00;;
4464;SDS011;2245;48.136;13.428;2022-08-21T13:41:02;6.37;;;5.33;;
4464;SDS011;2245;48.136;13.428;2022-08-21T13:43:33;6.37;;;5.27;;
4464;SDS011;2245;48.136;13.428;2022-08-21T13:46:01;5.03;;;4.63;;
4464;SDS011;2245;48.136;13.428;2022-08-21T13:48:35;5.17;;;4.60;;
4464;SDS011;2245;48.136;13.428;2022-08-21T13:51:02;7.80;;;4.90;;
4464;SDS011;2245;48.136;13.428;2022-08-21T13:53:31;5.20;;;4.80;;
4464;SDS011;2245;48.136;13.428;2022-08-21T13:55:59;5.37;;;4.83;;
4464;SDS011;2245;48.136;13.428;2022-08-21T13:58:28;7.40;;;5.50;;
4464;SDS011;2245;48.136;13.428;2022-08-21T14:00:56;7.20;;;5.37;;
4464;SDS011;2245;48.136;13.428;2022-08-21T14:03:32;6.43;;;5.93;;
4464;SDS011;2245;48.136;13.428;2022-08-21T14:06:02;5.87;;;5.27;;
4464;SDS011;2245;48.136;13.428;2022-08-21T14:08:31;4.47;;;4.17;;
4464;SDS011;2245;48.136;13.428;2022-08-21T14:11:00;6.00;;;5.30;;
4464;SDS011;2245;48.136;13.428;2022-08-21T14:13:34;5.17;;;4.70;;
4464;SDS011;2245;48.136;13.428;2022-08-21T14:16:08;6.37;;;5.10;;
4464;SDS011;2245;48.136;13.428;2022-08-21T14:18:43;5.57;;;5.13;;
4464;SDS011;2245;48.136;13.428;2022-08-21T14:21:12;5.53;;;4.40;;
4464;SDS011;2245;48.136;13.428;2022-08-21T14:23:39;4.53;;;4.13;;
4464;SDS011;2245;48.136;13.428;2022-08-21T14:26:07;4.70;;;4.40;;
4464;SDS011;2245;48.136;13.428;2022-08-21T14:28:37;5.50;;;5.00;;
4464;SDS011;2245;48.136;13.428;2022-08-21T14:31:13;5.20;;;4.23;;
4464;SDS011;2245;48.136;13.428;2022-08-21T14:33:41;4.53;;;4.23;;
4464;SDS011;2245;48.136;13.428;2022-08-21T14:36:08;5.40;;;4.90;;
4464;SDS011;2245;48.136;13.428;2022-08-21T14:45:22;5.47;;;4.97;;
4464;SDS011;2245;48.136;13.428;2022-08-21T14:47:52;9.13;;;5.00;;
4464;SDS011;2245;48.136;13.428;2022-08-21T14:50:19;5.53;;;4.97;;
4464;SDS011;2245;48.136;13.428;2022-08-21T14:52:47;8.77;;;6.30;;
4464;SDS011;2245;48.136;13.428;2022-08-21T14:55:15;8.43;;;6.07;;
4464;SDS011;2245;48.136;13.428;2022-08-21T14:57:44;6.63;;;5.90;;
4464;SDS011;2245;48.136;13.428;2022-08-21T15:00:12;7.20;;;6.50;;
4464;SDS011;2245;48.136;13.428;2022-08-21T15:02:43;7.20;;;6.13;;
4464;SDS011;2245;48.136;13.428;2022-08-21T15:05:10;7.53;;;6.70;;
4464;SDS011;2245;48.136;13.428;2022-08-21T15:07:37;8.77;;;6.93;;
4464;SDS011;2245;48.136;13.428;2022-08-21T15:10:04;7.27;;;6.57;;
4464;SDS011;2245;48.136;13.428;2022-08-21T15:12:32;7.90;;;7.10;;
4464;SDS011;2245;48.136;13.428;2022-08-21T15:14:59;8.63;;;6.20;;
4464;SDS011;2245;48.136;13.428;2022-08-21T15:17:26;7.57;;;6.53;;
4464;SDS011;2245;48.136;13.428;2022-08-21T15:19:54;7.70;;;6.90;;
4464;SDS011;2245;48.136;13.428;2022-08-21T15:22:21;7.00;;;6.30;;